createdAt,value
2018-12-16T00:00:52.788Z,-0.45
2018-12-16T00:03:23.490Z,-0.49
2018-12-16T00:05:54.337Z,-0.47
2018-12-16T00:08:25.191Z,-0.53
2018-12-16T00:10:55.898Z,-0.47
2018-12-16T00:13:26.846Z,-0.55
2018-12-16T00:15:57.877Z,-0.40
2018-12-16T00:18:28.815Z,-0.50
2018-12-16T00:21:00.822Z,-0.50
2018-12-16T00:23:31.638Z,-0.49
2018-12-16T00:26:02.375Z,-0.47
2018-12-16T00:28:33.286Z,-0.38
2018-12-16T00:31:04.230Z,-0.31
2018-12-16T00:33:35.078Z,-0.47
2018-12-16T00:36:06.065Z,-0.39
2018-12-16T00:38:36.743Z,-0.50
2018-12-16T00:41:07.758Z,-0.43
2018-12-16T00:43:38.726Z,-0.41
2018-12-16T00:46:10.137Z,-0.42
2018-12-16T00:48:40.923Z,-0.45
2018-12-16T00:51:12.509Z,-0.40
2018-12-16T00:53:43.797Z,-0.42
2018-12-16T00:56:14.764Z,-0.45
2018-12-16T00:58:45.716Z,-0.45
2018-12-16T01:01:16.467Z,-0.40
2018-12-16T01:03:47.155Z,-0.47
2018-12-16T01:06:17.708Z,-0.43
2018-12-16T01:08:49.019Z,-0.58
2018-12-16T01:11:19.738Z,-0.43
2018-12-16T01:13:50.912Z,-0.43
2018-12-16T01:16:22.034Z,-0.46
2018-12-16T01:18:53.227Z,-0.55
2018-12-16T01:21:24.158Z,-0.56
2018-12-16T01:23:56.436Z,-0.43
2018-12-16T01:26:27.284Z,-0.37
2018-12-16T01:28:57.954Z,-0.42
2018-12-16T01:31:28.648Z,-0.50
2018-12-16T01:33:59.476Z,-0.48
2018-12-16T01:36:30.128Z,-0.56
2018-12-16T01:39:00.942Z,-0.41
2018-12-16T01:41:31.503Z,-0.50
2018-12-16T01:44:02.032Z,-0.37
2018-12-16T01:46:33.226Z,-0.45
2018-12-16T01:49:03.768Z,-0.40
2018-12-16T01:51:34.999Z,-0.49
2018-12-16T01:54:06.704Z,-0.41
2018-12-16T01:56:37.608Z,-0.50
2018-12-16T01:59:08.793Z,-0.36
2018-12-16T02:01:44.039Z,-0.48
2018-12-16T02:04:15.237Z,-0.48
2018-12-16T02:06:45.880Z,-0.56
2018-12-16T02:09:16.839Z,-0.41
2018-12-16T02:11:47.422Z,-0.46
2018-12-16T02:14:18.014Z,-0.42
2018-12-16T02:16:48.845Z,-0.44
2018-12-16T02:19:19.619Z,-0.50
2018-12-16T02:21:50.217Z,-0.53
2018-12-16T02:24:21.417Z,-0.56
2018-12-16T02:26:52.428Z,-0.52
2018-12-16T02:29:22.983Z,-0.54
2018-12-16T02:31:53.647Z,-0.55
2018-12-16T02:34:24.471Z,-0.52
2018-12-16T02:36:55.323Z,-0.38
2018-12-16T02:39:26.198Z,-0.45
2018-12-16T02:41:56.810Z,-0.67
2018-12-16T02:44:28.144Z,-0.67
2018-12-16T02:46:58.976Z,-0.66
2018-12-16T02:49:29.669Z,-0.52
2018-12-16T02:52:00.464Z,-0.56
2018-12-16T02:54:31.201Z,-0.62
2018-12-16T02:57:01.996Z,-0.53
2018-12-16T02:59:32.569Z,-0.57
2018-12-16T03:02:03.189Z,-0.59
2018-12-16T03:04:33.759Z,-0.45
2018-12-16T03:07:04.695Z,-0.54
2018-12-16T03:09:35.469Z,-0.40
2018-12-16T03:12:06.275Z,-0.36
2018-12-16T03:14:37.214Z,-0.40
2018-12-16T03:17:07.789Z,-0.49
2018-12-16T03:19:38.640Z,-0.48
2018-12-16T03:22:09.308Z,-0.43
2018-12-16T03:24:39.937Z,-0.40
2018-12-16T03:27:11.691Z,-0.50
2018-12-16T03:29:42.702Z,-0.26
2018-12-16T03:32:13.240Z,-0.20
2018-12-16T03:34:43.890Z,-0.36
2018-12-16T03:37:14.788Z,-0.10
2018-12-16T03:39:45.611Z,0.16
2018-12-16T03:42:16.651Z,0.06
2018-12-16T03:44:47.205Z,0.22
2018-12-16T03:47:18.826Z,0.16
2018-12-16T03:49:49.413Z,0.13
2018-12-16T03:52:20.387Z,-0.20
2018-12-16T03:54:51.645Z,-0.09
2018-12-16T03:57:22.893Z,-0.24
2018-12-16T03:59:53.852Z,0.19
2018-12-16T04:02:24.636Z,0.22
2018-12-16T04:04:55.962Z,-0.08
2018-12-16T04:07:26.550Z,-0.06
2018-12-16T04:09:57.318Z,-0.07
2018-12-16T04:12:28.393Z,0.05
2018-12-16T04:14:59.021Z,0.06
2018-12-16T04:17:29.733Z,0.17
2018-12-16T04:20:00.563Z,0.32
2018-12-16T04:22:31.717Z,0.24
2018-12-16T04:25:02.455Z,-0.02
2018-12-16T04:27:33.186Z,0.12
2018-12-16T04:30:05.173Z,-0.14
2018-12-16T04:32:36.109Z,0.15
2018-12-16T04:35:07.419Z,0.05
2018-12-16T04:37:38.345Z,0.03
2018-12-16T04:40:08.926Z,-0.02
2018-12-16T04:42:39.884Z,0.31
2018-12-16T04:45:11.947Z,0.44
2018-12-16T04:47:42.522Z,1.19
2018-12-16T04:50:13.676Z,2.16
2018-12-16T04:52:44.328Z,1.11
2018-12-16T04:55:14.868Z,1.91
2018-12-16T04:57:45.455Z,1.71
2018-12-16T05:00:16.439Z,1.90
2018-12-16T05:02:47.026Z,2.09
2018-12-16T05:05:18.252Z,2.47
2018-12-16T05:07:49.645Z,2.24
2018-12-16T05:10:30.871Z,1.93
2018-12-16T05:13:01.426Z,1.80
2018-12-16T05:15:32.499Z,1.97
2018-12-16T05:18:03.292Z,1.70
2018-12-16T05:20:34.519Z,1.75
2018-12-16T05:23:05.049Z,2.39
2018-12-16T05:25:36.487Z,2.96
2018-12-16T05:28:08.043Z,2.50
2018-12-16T05:30:40.176Z,2.05
2018-12-16T05:33:11.050Z,1.21
2018-12-16T05:38:42.791Z,1.11
2018-12-16T05:41:13.754Z,0.70
2018-12-16T05:43:44.399Z,0.78
2018-12-16T05:46:14.918Z,1.01
2018-12-16T05:48:46.039Z,1.28
2018-12-16T05:51:17.015Z,0.89
2018-12-16T05:53:48.756Z,0.87
2018-12-16T05:56:19.978Z,0.96
2018-12-16T05:58:50.739Z,0.99
2018-12-16T06:01:21.241Z,1.20
2018-12-16T06:03:52.187Z,0.78
2018-12-16T06:06:22.882Z,0.43
2018-12-16T06:08:53.826Z,1.02
2018-12-16T06:11:24.698Z,1.57
2018-12-16T06:13:55.363Z,1.53
2018-12-16T06:16:26.079Z,1.93
2018-12-16T06:18:57.517Z,1.74
2018-12-16T06:21:28.215Z,1.38
2018-12-16T06:23:59.511Z,1.13
2018-12-16T06:26:31.761Z,0.68
2018-12-16T06:29:03.177Z,0.39
2018-12-16T06:31:33.699Z,0.58
2018-12-16T06:34:04.580Z,1.06
2018-12-16T06:36:35.891Z,1.18
2018-12-16T06:39:06.999Z,1.17
2018-12-16T06:41:38.068Z,1.11
2018-12-16T06:44:09.082Z,0.94
2018-12-16T06:46:39.591Z,0.61
2018-12-16T06:49:10.344Z,0.45
2018-12-16T06:51:41.407Z,0.97
2018-12-16T06:54:12.566Z,1.26
2018-12-16T06:56:43.286Z,1.54
2018-12-16T06:59:13.878Z,1.58
2018-12-16T07:01:44.823Z,0.83
2018-12-16T07:04:15.968Z,1.22
2018-12-16T07:06:46.836Z,0.75
2018-12-16T07:09:17.643Z,0.80
2018-12-16T07:11:48.492Z,1.33
2018-12-16T07:14:19.625Z,1.90
2018-12-16T07:16:50.664Z,2.40
2018-12-16T07:19:21.842Z,2.47
2018-12-16T07:21:52.867Z,3.08
2018-12-16T07:24:23.592Z,3.18
2018-12-16T07:26:54.905Z,3.34
2018-12-16T07:29:25.746Z,3.30
2018-12-16T07:31:56.890Z,3.45
2018-12-16T07:34:27.682Z,3.68
2018-12-16T07:36:58.814Z,3.76
2018-12-16T07:39:29.831Z,4.06
2018-12-16T07:42:00.999Z,4.37
2018-12-16T07:44:31.492Z,3.54
2018-12-16T07:47:03.019Z,3.28
2018-12-16T07:49:33.867Z,3.26
2018-12-16T07:52:04.872Z,3.11
2018-12-16T07:54:36.105Z,2.81
2018-12-16T07:57:06.963Z,3.10
2018-12-16T07:59:37.937Z,2.86
2018-12-16T08:02:09.225Z,2.37
2018-12-16T08:04:40.218Z,2.42
2018-12-16T08:07:12.186Z,2.37
2018-12-16T08:09:43.579Z,2.81
2018-12-16T08:12:14.215Z,1.73
2018-12-16T08:14:44.923Z,0.55
2018-12-16T08:17:15.746Z,0.04
2018-12-16T08:19:46.608Z,0.66
2018-12-16T08:22:17.467Z,0.73
2018-12-16T08:24:48.598Z,0.37
2018-12-16T08:27:19.199Z,0.26
2018-12-16T08:29:50.803Z,0.20
2018-12-16T08:32:21.713Z,0.02
2018-12-16T08:34:52.590Z,0.10
2018-12-16T08:37:24.953Z,0.20
2018-12-16T08:39:55.615Z,0.42
2018-12-16T08:42:26.999Z,0.09
2018-12-16T08:44:58.052Z,-0.05
2018-12-16T08:47:33.036Z,0.02
2018-12-16T08:50:02.192Z,0.86
2018-12-16T08:52:33.041Z,1.91
2018-12-16T08:55:04.350Z,2.49
2018-12-16T08:57:35.013Z,2.56
2018-12-16T09:00:06.457Z,2.40
2018-12-16T09:02:37.286Z,2.17
2018-12-16T09:05:08.924Z,2.22
2018-12-16T09:07:39.574Z,1.98
2018-12-16T09:10:11.331Z,2.22
2018-12-16T09:12:42.018Z,2.12
2018-12-16T09:15:12.862Z,2.17
2018-12-16T09:17:43.967Z,1.71
2018-12-16T09:20:14.988Z,1.07
2018-12-16T09:22:45.668Z,1.35
2018-12-16T09:25:16.347Z,1.32
2018-12-16T09:27:47.290Z,-0.05
2018-12-16T09:30:18.229Z,1.04
2018-12-16T09:32:49.116Z,0.88
2018-12-16T09:35:20.116Z,0.76
2018-12-16T09:37:50.901Z,1.28
2018-12-16T09:40:21.706Z,1.63
2018-12-16T09:42:52.400Z,1.19
2018-12-16T09:45:23.183Z,1.75
2018-12-16T09:47:54.043Z,1.44
2018-12-16T09:50:25.074Z,2.26
2018-12-16T09:52:55.955Z,2.33
2018-12-16T09:55:26.531Z,2.55
2018-12-16T09:57:57.242Z,2.99
2018-12-16T10:00:28.080Z,2.86
2018-12-16T10:02:59.239Z,2.95
2018-12-16T10:05:30.290Z,2.84
2018-12-16T10:08:01.506Z,2.85
2018-12-16T10:10:32.297Z,3.07
2018-12-16T10:13:03.061Z,3.25
2018-12-16T10:15:34.025Z,3.37
2018-12-16T10:18:05.220Z,4.06
2018-12-16T10:20:36.080Z,4.68
2018-12-16T10:23:07.340Z,4.75
2018-12-16T10:25:38.282Z,4.10
2018-12-16T10:28:08.818Z,3.74
2018-12-16T10:30:39.795Z,4.18
2018-12-16T10:33:10.828Z,5.36
2018-12-16T10:35:41.972Z,6.24
2018-12-16T10:38:12.869Z,5.85
2018-12-16T10:40:43.631Z,5.07
2018-12-16T10:43:14.767Z,4.57
2018-12-16T10:45:45.470Z,4.30
2018-12-16T10:48:16.453Z,3.88
2018-12-16T10:50:47.426Z,3.35
2018-12-16T10:53:18.731Z,3.13
2018-12-16T10:55:49.571Z,2.64
2018-12-16T10:58:20.720Z,2.57
2018-12-16T11:00:56.894Z,2.58
2018-12-16T11:03:27.915Z,2.43
2018-12-16T11:05:59.675Z,2.51
2018-12-16T11:08:31.043Z,2.55
2018-12-16T11:11:01.966Z,2.48
2018-12-16T11:13:32.802Z,2.45
2018-12-16T11:16:03.514Z,2.52
2018-12-16T11:18:34.755Z,2.26
2018-12-16T11:21:05.919Z,2.59
2018-12-16T11:23:36.774Z,2.25
2018-12-16T11:26:07.924Z,2.55
2018-12-16T11:28:38.572Z,2.62
2018-12-16T11:31:09.267Z,2.62
2018-12-16T11:33:40.290Z,2.48
2018-12-16T11:36:10.992Z,2.96
2018-12-16T11:38:41.622Z,3.14
2018-12-16T11:41:12.934Z,2.95
2018-12-16T11:43:43.455Z,2.63
2018-12-16T11:46:14.140Z,2.83
2018-12-16T11:48:45.035Z,1.81
2018-12-16T11:51:15.986Z,2.10
2018-12-16T11:53:47.113Z,1.85
2018-12-16T11:56:18.470Z,1.93
2018-12-16T11:58:49.534Z,1.90
2018-12-16T12:01:20.420Z,1.92
2018-12-16T12:03:51.495Z,2.09
2018-12-16T12:06:22.214Z,2.28
2018-12-16T12:08:53.162Z,2.49
2018-12-16T12:11:24.194Z,2.54
2018-12-16T12:13:54.739Z,2.59
2018-12-16T12:16:27.689Z,2.59
2018-12-16T12:19:02.698Z,2.46
2018-12-16T12:21:33.399Z,2.43
2018-12-16T12:24:04.841Z,2.35
2018-12-16T12:26:35.856Z,2.31
2018-12-16T12:29:06.641Z,1.93
2018-12-16T12:31:37.395Z,1.88
2018-12-16T12:34:08.198Z,1.91
2018-12-16T12:36:38.854Z,1.86
2018-12-16T12:39:09.546Z,2.01
2018-12-16T12:41:40.227Z,2.18
2018-12-16T12:44:10.759Z,1.88
2018-12-16T12:46:41.476Z,2.06
2018-12-16T12:49:12.161Z,2.25
2018-12-16T12:51:43.217Z,2.59
2018-12-16T12:54:14.283Z,2.99
2018-12-16T12:56:45.423Z,3.56
2018-12-16T12:59:15.962Z,4.23
2018-12-16T13:01:46.622Z,4.41
2018-12-16T13:04:17.417Z,4.49
2018-12-16T13:06:48.057Z,4.22
2018-12-16T13:09:18.806Z,4.01
2018-12-16T13:11:49.563Z,3.60
2018-12-16T13:14:20.673Z,3.38
2018-12-16T13:16:51.767Z,3.18
2018-12-16T13:19:22.821Z,2.84
2018-12-16T13:21:53.954Z,2.61
2018-12-16T13:24:25.010Z,2.48
2018-12-16T13:26:56.701Z,2.45
2018-12-16T13:29:27.543Z,2.49
2018-12-16T13:31:58.359Z,2.50
2018-12-16T13:34:29.148Z,2.46
2018-12-16T13:36:59.724Z,2.56
2018-12-16T13:39:30.427Z,2.61
2018-12-16T13:42:02.103Z,2.35
2018-12-16T13:44:33.158Z,2.29
2018-12-16T13:47:04.174Z,2.16
2018-12-16T13:49:35.362Z,2.12
2018-12-16T13:52:06.879Z,2.27
2018-12-16T13:54:37.757Z,2.09
2018-12-16T13:57:08.267Z,2.17
2018-12-16T13:59:39.370Z,2.01
2018-12-16T14:02:10.371Z,1.95
2018-12-16T14:04:41.290Z,1.67
2018-12-16T14:07:12.094Z,1.83
2018-12-16T14:09:43.431Z,1.72
2018-12-16T14:12:14.213Z,1.74
2018-12-16T14:14:45.274Z,1.70
2018-12-16T14:17:16.344Z,1.46
2018-12-16T14:19:46.872Z,1.40
2018-12-16T14:22:18.121Z,1.67
2018-12-16T14:24:48.708Z,0.38
2018-12-16T14:27:19.536Z,1.59
2018-12-16T14:29:50.387Z,1.63
2018-12-16T14:32:21.038Z,1.61
2018-12-16T14:34:51.918Z,1.55
2018-12-16T14:37:22.746Z,1.51
2018-12-16T14:39:53.599Z,1.45
2018-12-16T14:42:24.634Z,1.36
2018-12-16T14:44:55.420Z,1.34
2018-12-16T14:47:26.248Z,1.38
2018-12-16T14:49:57.100Z,1.28
2018-12-16T14:52:27.951Z,1.29
2018-12-16T14:54:58.797Z,1.30
2018-12-16T14:57:29.598Z,1.32
2018-12-16T15:00:00.950Z,1.60
2018-12-16T15:02:31.550Z,0.78
2018-12-16T15:05:02.283Z,1.64
2018-12-16T15:07:33.315Z,1.96
2018-12-16T15:10:06.727Z,1.59
2018-12-16T15:12:37.425Z,1.58
2018-12-16T15:15:09.080Z,1.90
2018-12-16T15:17:42.887Z,1.90
2018-12-16T15:20:12.963Z,1.76
2018-12-16T15:22:43.830Z,1.85
2018-12-16T15:25:14.349Z,2.08
2018-12-16T15:27:45.343Z,1.79
2018-12-16T15:30:15.851Z,2.20
2018-12-16T15:32:46.789Z,1.79
2018-12-16T15:35:18.062Z,1.69
2018-12-16T15:37:49.024Z,1.79
2018-12-16T15:40:19.915Z,1.72
2018-12-16T15:42:50.950Z,1.79
2018-12-16T15:45:21.979Z,1.96
2018-12-16T15:47:52.887Z,2.09
2018-12-16T15:50:23.724Z,2.15
2018-12-16T15:52:55.052Z,2.12
2018-12-16T15:55:25.787Z,1.94
2018-12-16T15:57:56.619Z,2.06
2018-12-16T16:00:27.403Z,2.36
2018-12-16T16:02:59.352Z,2.91
2018-12-16T16:05:30.166Z,2.72
2018-12-16T16:08:01.019Z,3.26
2018-12-16T16:10:32.685Z,2.95
2018-12-16T16:13:03.620Z,2.76
2018-12-16T16:15:35.732Z,3.06
2018-12-16T16:18:06.723Z,2.67
2018-12-16T16:20:38.433Z,2.79
2018-12-16T16:23:09.710Z,2.26
2018-12-16T16:25:40.922Z,2.93
2018-12-16T16:28:11.589Z,3.45
2018-12-16T16:30:42.731Z,3.28
2018-12-16T16:33:14.595Z,3.77
2018-12-16T16:35:46.196Z,3.57
2018-12-16T16:38:17.248Z,4.01
2018-12-16T16:40:48.889Z,4.16
2018-12-16T16:43:19.960Z,4.12
2018-12-16T16:45:51.130Z,4.57
2018-12-16T16:48:22.412Z,4.28
2018-12-16T16:50:53.877Z,3.83
2018-12-16T16:53:24.895Z,3.68
2018-12-16T16:55:55.514Z,3.23
2018-12-16T16:58:26.245Z,3.29
2018-12-16T17:00:57.564Z,3.06
2018-12-16T17:03:28.486Z,3.13
2018-12-16T17:06:00.568Z,3.30
2018-12-16T17:08:33.091Z,2.58
2018-12-16T17:11:09.030Z,2.31
2018-12-16T17:13:40.730Z,2.13
2018-12-16T17:16:12.847Z,2.02
2018-12-16T17:18:44.771Z,1.82
2018-12-16T17:21:15.503Z,1.90
2018-12-16T17:23:46.410Z,1.95
2018-12-16T17:26:17.786Z,1.73
2018-12-16T17:28:48.314Z,1.58
2018-12-16T17:31:18.915Z,1.55
2018-12-16T17:33:49.806Z,1.39
2018-12-16T17:36:20.308Z,1.61
2018-12-16T17:38:53.818Z,1.71
2018-12-16T17:41:24.448Z,1.62
2018-12-16T17:43:55.795Z,1.57
2018-12-16T17:46:27.067Z,1.61
2018-12-16T17:48:57.951Z,1.58
2018-12-16T17:51:29.024Z,1.55
2018-12-16T17:54:00.011Z,1.53
2018-12-16T17:56:36.806Z,1.65
2018-12-16T17:59:03.351Z,1.45
2018-12-16T18:01:34.335Z,1.39
2018-12-16T18:04:09.984Z,1.11
2018-12-16T18:06:42.251Z,1.09
2018-12-16T18:09:14.888Z,1.35
2018-12-16T18:11:46.140Z,1.15
2018-12-16T18:14:17.152Z,1.42
2018-12-16T18:16:48.635Z,1.43
2018-12-16T18:19:20.792Z,1.52
2018-12-16T18:21:52.459Z,1.66
2018-12-16T18:24:24.557Z,1.90
2018-12-16T18:26:55.131Z,1.42
2018-12-16T18:29:26.303Z,1.24
2018-12-16T18:31:57.777Z,1.39
2018-12-16T18:34:28.303Z,1.27
2018-12-16T18:36:58.867Z,1.40
2018-12-16T18:39:29.977Z,1.29
2018-12-16T18:42:01.902Z,1.26
2018-12-16T18:44:34.395Z,1.49
2018-12-16T18:47:05.331Z,1.13
2018-12-16T18:49:35.950Z,1.44
2018-12-16T18:52:07.925Z,1.72
2018-12-16T18:54:39.147Z,1.76
2018-12-16T18:57:11.511Z,1.94
2018-12-16T18:59:42.881Z,2.44
2018-12-16T19:02:13.817Z,2.26
2018-12-16T19:04:44.742Z,2.24
2018-12-16T19:07:16.195Z,2.26
2018-12-16T19:09:46.819Z,1.80
2018-12-16T19:12:17.615Z,1.38
2018-12-16T19:14:49.202Z,1.45
2018-12-16T19:17:20.442Z,1.20
2018-12-16T19:19:51.954Z,1.45
2018-12-16T19:22:22.623Z,0.92
2018-12-16T19:24:53.669Z,1.45
2018-12-16T19:27:25.190Z,1.56
2018-12-16T19:30:00.953Z,1.65
2018-12-16T19:32:33.010Z,1.62
2018-12-16T19:35:04.134Z,1.47
2018-12-16T19:37:35.397Z,1.64
2018-12-16T19:40:07.078Z,1.37
2018-12-16T19:42:38.643Z,1.38
2018-12-16T19:45:09.514Z,1.16
2018-12-16T19:47:40.655Z,1.44
2018-12-16T19:50:11.613Z,1.26
2018-12-16T19:53:02.236Z,1.19
2018-12-16T19:55:34.118Z,1.20
2018-12-16T19:58:05.967Z,0.86
2018-12-16T20:00:46.008Z,0.93
2018-12-16T20:03:16.841Z,0.92
2018-12-16T20:05:59.806Z,1.25
2018-12-16T20:08:30.511Z,1.34
2018-12-16T20:11:01.474Z,1.07
2018-12-16T20:13:32.155Z,1.16
2018-12-16T20:16:03.620Z,1.40
2018-12-16T20:18:34.366Z,1.54
2018-12-16T20:21:06.223Z,1.86
2018-12-16T20:23:37.174Z,2.15
2018-12-16T20:26:08.381Z,2.53
2018-12-16T20:28:39.186Z,2.53
2018-12-16T20:31:10.098Z,2.23
2018-12-16T20:33:40.987Z,2.54
2018-12-16T20:36:11.760Z,2.22
2018-12-16T20:38:42.898Z,2.01
2018-12-16T20:41:14.044Z,2.00
2018-12-16T20:43:45.325Z,2.06
2018-12-16T20:46:16.142Z,1.84
2018-12-16T20:48:46.859Z,1.19
2018-12-16T20:51:17.696Z,0.69
2018-12-16T20:53:48.190Z,1.24
2018-12-16T20:56:29.231Z,1.36
2018-12-16T20:59:00.352Z,1.85
2018-12-16T21:01:30.901Z,1.91
2018-12-16T21:04:01.845Z,1.71
2018-12-16T21:06:32.966Z,1.90
2018-12-16T21:09:04.879Z,1.94
2018-12-16T21:11:41.538Z,1.89
2018-12-16T21:14:18.151Z,1.68
2018-12-16T21:16:53.710Z,1.85
2018-12-16T21:19:25.379Z,1.84
2018-12-16T21:21:56.038Z,0.88
2018-12-16T21:24:47.962Z,1.57
2018-12-16T21:27:25.819Z,1.39
2018-12-16T21:29:51.922Z,1.42
2018-12-16T21:32:23.198Z,1.52
2018-12-16T21:34:53.975Z,1.69
2018-12-16T21:37:28.747Z,1.23
2018-12-16T21:39:59.845Z,1.44
2018-12-16T21:42:30.510Z,1.68
2018-12-16T21:45:02.745Z,1.55
2018-12-16T21:47:33.822Z,1.52
2018-12-16T21:50:05.427Z,1.53
2018-12-16T21:52:36.461Z,1.57
2018-12-16T21:55:08.085Z,1.62
2018-12-16T21:57:38.752Z,1.55
2018-12-16T22:00:11.043Z,0.46
2018-12-16T22:02:41.960Z,1.98
2018-12-16T22:07:56.165Z,1.98
2018-12-16T22:10:28.852Z,1.81
2018-12-16T22:12:59.615Z,1.95
2018-12-16T22:15:30.584Z,2.15
2018-12-16T22:18:01.419Z,2.02
2018-12-16T22:20:31.949Z,0.54
2018-12-16T22:23:02.650Z,1.70
2018-12-16T22:25:34.071Z,1.63
2018-12-16T22:28:04.778Z,1.69
2018-12-16T22:30:35.930Z,1.87
2018-12-16T22:33:07.075Z,1.70
2018-12-16T22:35:37.888Z,1.66
2018-12-16T22:38:08.571Z,1.79
2018-12-16T22:40:45.366Z,1.76
2018-12-16T22:43:28.550Z,1.06
2018-12-16T22:45:59.924Z,2.05
2018-12-16T22:48:30.574Z,1.89
2018-12-16T22:51:01.371Z,1.56
2018-12-16T22:53:32.207Z,1.35
2018-12-16T22:56:02.750Z,1.50
2018-12-16T22:58:33.572Z,1.72
2018-12-16T23:01:09.905Z,1.66
2018-12-16T23:03:40.602Z,1.64
2018-12-16T23:06:11.491Z,1.69
2018-12-16T23:08:42.467Z,1.44
2018-12-16T23:11:13.376Z,1.18
2018-12-16T23:13:44.163Z,1.37
2018-12-16T23:16:15.886Z,1.51
2018-12-16T23:18:46.875Z,2.23
2018-12-16T23:21:17.866Z,2.50
2018-12-16T23:23:49.012Z,2.22
2018-12-16T23:26:20.339Z,1.80
2018-12-16T23:28:52.381Z,2.25
2018-12-16T23:31:24.338Z,2.49
2018-12-16T23:33:55.296Z,1.61
2018-12-16T23:36:26.404Z,1.90
2018-12-16T23:38:57.415Z,0.60
2018-12-16T23:41:28.253Z,0.61
2018-12-16T23:43:59.073Z,0.60
2018-12-16T23:46:29.625Z,0.66
2018-12-16T23:49:00.429Z,0.77
2018-12-16T23:51:31.070Z,1.18
2018-12-16T23:54:02.415Z,1.12
2018-12-16T23:56:33.078Z,1.27
2018-12-16T23:59:04.046Z,1.12
